Wetterdaten: August 2016
Datum Temp Feuchte Luftdruck Regen Wind Richtung Sonnenschein UV Solar Windben
01.08.2016 14,6 C 84 % 1017,5 hPa 3,2 l/m 0,3 km/h S 5,08 h 2,5 UV-I 280 W/m 2,4 km/h
02.08.2016 15,2 C 94 % 1013,7 hPa 8,0 l/m 0,3 km/h S 0,42 h 1,8 UV-I 124 W/m 1,6 km/h
03.08.2016 17,7 C 95 % 1010,2 hPa 11,6 l/m 2,3 km/h S 0,00 h 1,1 UV-I 84 W/m 9,6 km/h
04.08.2016 17,0 C 80 % 1010,6 hPa 3,4 l/m 1,7 km/h S 4,42 h 2,5 UV-I 243 W/m 6,4 km/h
05.08.2016 16,3 C 84 % 1017,8 hPa 0,0 l/m 0,8 km/h W 2,42 h 1,9 UV-I 199 W/m 6,4 km/h
06.08.2016 17,1 C 82 % 1024,7 hPa 1,2 l/m 0,0 km/h W-NW 3,67 h 2,1 UV-I 238 W/m 0,0 km/h
07.08.2016 19,7 C 71 % 1023,3 hPa 0,2 l/m 0,5 km/h S 11,75 h 3,5 UV-I 419 W/m 2,0 km/h
08.08.2016 17,9 C 72 % 1017,9 hPa 0,0 l/m 2,6 km/h S 2,83 h 1,7 UV-I 185 W/m 17,7 km/h
09.08.2016 13,4 C 81 % 1019,7 hPa 0,6 l/m 0,2 km/h W-NW 4,17 h 2,2 UV-I 266 W/m 2,4 km/h
10.08.2016 11,9 C 75 % 1020,4 hPa 2,0 l/m 1,9 km/h N-NW 4,00 h 2,1 UV-I 288 W/m 7,3 km/h
11.08.2016 11,2 C 86 % 1020,7 hPa 3,6 l/m 2,9 km/h S 2,33 h 1,9 UV-I 216 W/m 6,4 km/h
12.08.2016 16,4 C 97 % 1021,6 hPa 15,2 l/m 1,3 km/h S 0,00 h 1,0 UV-I 81 W/m 9,6 km/h
13.08.2016 18,8 C 79 % 1020,6 hPa 0,0 l/m 1,9 km/h S 9,08 h 3,2 UV-I 395 W/m 9,6 km/h
14.08.2016 17,5 C 78 % 1022,2 hPa 0,0 l/m 0,2 km/h W-NW 4,50 h 2,6 UV-I 284 W/m 1,6 km/h
15.08.2016 16,7 C 74 % 1022,2 hPa 0,0 l/m 1,9 km/h N 7,75 h 2,7 UV-I 372 W/m 4,8 km/h
16.08.2016 16,7 C 70 % 1017,4 hPa 0,0 l/m 0,1 km/h N-NO 8,92 h 3,0 UV-I 368 W/m 3,2 km/h
17.08.2016 14,3 C 77 % 1013,5 hPa 0,0 l/m 1,1 km/h SO 11,42 h 3,1 UV-I 426 W/m 3,6 km/h
18.08.2016 15,9 C 69 % 1009,4 hPa 0,0 l/m 0,5 km/h N 11,42 h 3,1 UV-I 447 W/m 2,0 km/h
19.08.2016 19,0 C 74 % 1009,2 hPa 1,2 l/m 0,1 km/h S 9,08 h 3,1 UV-I 405 W/m 2,0 km/h
20.08.2016 16,2 C 84 % 1011,7 hPa 4,8 l/m 2,5 km/h S 2,92 h 1,6 UV-I 187 W/m 5,6 km/h
21.08.2016 15,1 C 88 % 1017,5 hPa 2,8 l/m 1,2 km/h S 2,92 h 1,9 UV-I 230 W/m 13,7 km/h
22.08.2016 15,0 C 92 % 1024,7 hPa 2,8 l/m 3,9 km/h S 0,75 h 1,8 UV-I 158 W/m 8,1 km/h
23.08.2016 19,4 C 79 % 1025,7 hPa 0,0 l/m 0,0 km/h S 10,67 h 3,5 UV-I 418 W/m 0,0 km/h
24.08.2016 21,5 C 74 % 1021,4 hPa 0,0 l/m 3,9 km/h SO 10,92 h 3,5 UV-I 421 W/m 6,0 km/h
25.08.2016 24,1 C 53 % 1016,1 hPa 0,0 l/m 9,4 km/h SO 11,00 h 3,4 UV-I 428 W/m 16,9 km/h
26.08.2016 25,4 C 63 % 1015,4 hPa 0,0 l/m 0,5 km/h S 9,75 h 3,0 UV-I 388 W/m 2,8 km/h
27.08.2016 24,5 C 72 % 1016,0 hPa 0,6 l/m 0,7 km/h SO 9,75 h 2,9 UV-I 392 W/m 4,4 km/h
28.08.2016 22,8 C 68 % 1012,1 hPa 1,8 l/m 3,8 km/h S 6,42 h 2,9 UV-I 289 W/m 14,9 km/h
29.08.2016 16,6 C 85 % 1018,7 hPa 1,6 l/m 0,7 km/h S-SW 1,50 h 1,5 UV-I 151 W/m 8,9 km/h
30.08.2016 15,0 C 72 % 1024,4 hPa 0,0 l/m 0,1 km/h N-NO 10,58 h 3,1 UV-I 416 W/m 0,8 km/h
31.08.2016 18,2 C 68 % 1019,8 hPa 0,0 l/m 0,2 km/h SO 7,25 h 2,6 UV-I 335 W/m 2,0 km/h
Min-Datum 11.08.16 18.08.16 18.08.16 17 Tage 01.08.16 - - - - 01.08.16
Min-Zeit 05:55 17:15 17:35 - 00:00 - - - - 00:00
Minimum 3,7 C 30 % 1008,0 hPa - 0,0 km/h - - - - 0,0 km/h
Max-Datum 26.08.16 30.08.16 23.08.16 12.08.16 25.08.16 - 07.08.16 08.08.16 07.08.16 05.08.16
Max-Zeit 14:50 07:55 10:55 01:35 12:15 - 19:30 13:20 14:10 17:10
Maximum 35,1 C 100 % 1027,2 hPa 15,2 l/m 24,0 km/h
SO
- 11,67 h 7,1 UV-I 1093 W/m 35,4 km/h
W
Durchschnitt 17,5 C 78 % 1017,9 hPa #64,6 l/m 1,5 km/h S #187:40 h 2,5 UV-I 295 W/m 5,9 km/h

Durchschnitt Minimum Temp.12,2 C
Durchschnitt Maximum Temp.23,6 C